Time;durP1;ratioP1;P1;durP2;ratioP2;P2;SDS_P1;SDS_P2;PMS_P1;PMS_P2;Temp;Humidity;BMP_temperature;BMP_pressure;BME280_temperature;BME280_humidity;BME280_pressure;Samples;Min_cycle;Max_cycle;Signal;HPM_P1;HPM_P2
2022/12/03 00:00:30;;;;;;;0.80;0.80;;;2.10;99.90;;;;;;5045843;28;20752;-81
2022/12/03 00:02:57;;;;;;;1.15;1.05;;;2.10;99.90;;;;;;5049211;28;20208;-79
2022/12/03 00:05:24;;;;;;;2.45;1.80;;;2.10;99.90;;;;;;5052885;28;20198;-79
2022/12/03 00:07:50;;;;;;;5.57;2.58;;;2.10;99.90;;;;;;5053238;28;20190;-81
2022/12/03 00:10:18;;;;;;;2.15;1.20;;;2.00;99.90;;;;;;5036550;28;20199;-80
2022/12/03 00:12:46;;;;;;;0.90;0.90;;;2.10;99.90;;;;;;5050514;28;20624;-79
2022/12/03 00:15:13;;;;;;;0.50;0.40;;;2.10;99.90;;;;;;5041756;28;20769;-78
2022/12/03 00:17:41;;;;;;;0.50;0.45;;;2.10;99.90;;;;;;5050722;28;20260;-77
2022/12/03 00:20:09;;;;;;;2.25;2.15;;;2.10;99.90;;;;;;5044035;28;20229;-80
2022/12/03 00:22:36;;;;;;;0.50;0.50;;;2.10;99.90;;;;;;5038202;28;20198;-80
2022/12/03 00:25:03;;;;;;;0.60;0.60;;;2.10;99.90;;;;;;5052270;28;20276;-79
2022/12/03 00:27:30;;;;;;;1.33;1.08;;;2.20;99.90;;;;;;5052424;28;20404;-79
2022/12/03 00:29:58;;;;;;;2.03;1.92;;;2.10;99.90;;;;;;5052227;28;20218;-80
2022/12/03 00:32:25;;;;;;;0.50;0.40;;;2.20;99.90;;;;;;5047067;28;20666;-79
2022/12/03 00:34:52;;;;;;;3.55;2.47;;;2.20;99.90;;;;;;5049294;28;20276;-79
2022/12/03 00:37:18;;;;;;;3.00;0.80;;;2.10;99.90;;;;;;5045153;28;20286;-80
2022/12/03 00:39:45;;;;;;;1.65;1.42;;;2.20;99.90;;;;;;5043878;28;20281;-79
2022/12/03 00:42:12;;;;;;;0.60;0.60;;;2.20;99.90;;;;;;5049252;28;20198;-80
2022/12/03 00:44:39;;;;;;;1.02;0.93;;;2.10;99.90;;;;;;5056659;28;20314;-80
2022/12/03 00:47:08;;;;;;;0.50;0.40;;;2.20;99.90;;;;;;5054479;28;20682;-79
2022/12/03 00:49:35;;;;;;;0.77;0.77;;;2.20;99.90;;;;;;5048665;28;20262;-78
2022/12/03 00:52:02;;;;;;;0.60;0.57;;;2.20;99.90;;;;;;5055895;28;20202;-78
2022/12/03 00:54:29;;;;;;;0.50;0.40;;;2.20;99.90;;;;;;5056163;28;20274;-80
2022/12/03 00:56:55;;;;;;;0.60;0.60;;;2.30;99.90;;;;;;5054066;28;20202;-78
2022/12/03 00:59:22;;;;;;;0.50;0.40;;;2.30;99.90;;;;;;5042784;28;20202;-78
2022/12/03 01:01:49;;;;;;;0.50;0.40;;;2.30;99.90;;;;;;5056584;28;20699;-79
2022/12/03 01:04:17;;;;;;;0.70;0.70;;;2.30;99.90;;;;;;5055451;28;20215;-80
2022/12/03 01:06:44;;;;;;;3.80;3.50;;;2.20;99.90;;;;;;5054361;28;20190;-78
2022/12/03 01:09:11;;;;;;;2.45;2.35;;;2.20;99.90;;;;;;5050384;28;20255;-80
2022/12/03 01:11:38;;;;;;;7.07;3.25;;;2.20;99.90;;;;;;5056254;28;20191;-80
2022/12/03 01:14:05;;;;;;;0.50;0.40;;;2.20;99.90;;;;;;5042048;28;20183;-79
2022/12/03 01:16:32;;;;;;;0.75;0.75;;;2.20;99.90;;;;;;5053529;28;20295;-80
2022/12/03 01:18:58;;;;;;;2.60;2.40;;;2.30;99.90;;;;;;5055788;28;20207;-79
2022/12/03 01:21:27;;;;;;;0.60;0.60;;;2.30;99.90;;;;;;5055790;28;20190;-81
2022/12/03 01:23:54;;;;;;;6.40;4.70;;;2.30;99.90;;;;;;5054548;28;20225;-77
2022/12/03 01:26:20;;;;;;;0.50;0.45;;;2.30;99.90;;;;;;5054842;28;20187;-79
2022/12/03 01:28:47;;;;;;;5.70;1.77;;;2.30;99.90;;;;;;5056142;28;20308;-75
2022/12/03 01:33:58;;;;;;;0.60;0.52;;;2.20;99.90;;;;;;5057206;28;20659;-79
2022/12/03 01:36:26;;;;;;;2.10;2.00;;;2.30;99.90;;;;;;5045781;28;20217;-81
2022/12/03 01:38:53;;;;;;;0.50;0.45;;;2.30;99.90;;;;;;5054355;28;20218;-79
2022/12/03 01:41:22;;;;;;;4.43;2.72;;;2.30;99.90;;;;;;5054892;28;20270;-80
2022/12/03 01:43:49;;;;;;;0.50;0.45;;;2.30;99.90;;;;;;5061011;28;20300;-79
2022/12/03 01:46:20;;;;;;;0.50;0.50;;;2.30;99.90;;;;;;5059274;28;20186;-79
2022/12/03 01:48:49;;;;;;;0.50;0.40;;;2.30;99.90;;;;;;5047082;28;20301;-77
2022/12/03 01:51:16;;;;;;;0.50;0.40;;;2.30;99.90;;;;;;5043349;28;20201;-81
2022/12/03 01:53:45;;;;;;;3.42;3.08;;;2.30;99.90;;;;;;5049022;28;20197;-80
2022/12/03 01:56:13;;;;;;;1.60;1.40;;;2.40;99.90;;;;;;5048861;28;20195;-77
2022/12/03 01:58:40;;;;;;;0.57;0.55;;;2.40;99.90;;;;;;5055515;28;20214;-79
2022/12/03 02:01:12;;;;;;;3.42;3.20;;;2.40;99.90;;;;;;5055479;28;20194;-80
2022/12/03 02:03:39;;;;;;;2.92;2.17;;;2.30;99.90;;;;;;5054906;28;20688;-79
2022/12/03 02:06:09;;;;;;;1.75;1.65;;;2.40;99.90;;;;;;5053983;28;20191;-79
2022/12/03 02:08:38;;;;;;;1.95;1.80;;;2.40;99.90;;;;;;5055522;28;20272;-79
2022/12/03 02:11:11;;;;;;;0.93;0.93;;;2.30;99.90;;;;;;5054604;28;20587;-80
2022/12/03 02:13:38;;;;;;;0.80;0.80;;;2.40;99.90;;;;;;5053969;28;20189;-79
2022/12/03 02:16:05;;;;;;;3.20;0.65;;;2.30;99.90;;;;;;5053798;28;20208;-79
2022/12/03 02:18:32;;;;;;;0.50;0.50;;;2.30;99.90;;;;;;5046184;28;20223;-80
2022/12/03 02:21:09;;;;;;;0.60;0.60;;;2.30;99.90;;;;;;5055068;28;20187;-80
2022/12/03 02:23:44;;;;;;;0.50;0.50;;;2.40;99.90;;;;;;5054636;28;20203;-81
2022/12/03 02:26:12;;;;;;;0.50;0.40;;;2.40;99.90;;;;;;5053932;28;20285;-79
2022/12/03 02:28:39;;;;;;;2.17;2.08;;;2.40;99.90;;;;;;5051638;28;20237;-79
2022/12/03 02:31:06;;;;;;;0.60;0.60;;;2.40;99.90;;;;;;5042133;28;20201;-80
2022/12/03 02:33:34;;;;;;;5.15;3.90;;;2.30;99.90;;;;;;5054608;28;20190;-80
2022/12/03 02:36:01;;;;;;;0.50;0.40;;;2.30;99.90;;;;;;5050714;28;20280;-80
2022/12/03 02:38:30;;;;;;;0.70;0.65;;;2.30;99.90;;;;;;5046607;28;20309;-80
2022/12/03 02:41:00;;;;;;;2.25;2.15;;;2.30;99.90;;;;;;5036247;28;20183;-80
2022/12/03 02:43:27;;;;;;;0.50;0.40;;;2.30;99.90;;;;;;5045161;28;20282;-79
2022/12/03 02:45:57;;;;;;;0.50;0.50;;;2.30;99.90;;;;;;5051789;28;20656;-79
2022/12/03 02:48:27;;;;;;;0.50;0.40;;;2.30;99.90;;;;;;5046575;28;20254;-80
2022/12/03 02:50:57;;;;;;;0.80;0.80;;;2.30;99.90;;;;;;5035145;28;20178;-79
2022/12/03 02:53:26;;;;;;;1.38;1.30;;;2.30;99.90;;;;;;5054051;28;20198;-79
2022/12/03 02:55:55;;;;;;;2.55;2.40;;;2.30;99.90;;;;;;5044777;28;20190;-80
2022/12/03 02:58:24;;;;;;;0.50;0.40;;;2.20;99.90;;;;;;5036103;28;20718;-78
2022/12/03 03:00:53;;;;;;;1.45;0.98;;;2.30;99.90;;;;;;5052825;28;20190;-75
2022/12/03 03:03:21;;;;;;;0.50;0.50;;;2.30;99.90;;;;;;5053947;28;20186;-80
2022/12/03 03:05:49;;;;;;;6.78;2.60;;;2.40;99.90;;;;;;5050103;28;20195;-80
2022/12/03 03:08:17;;;;;;;0.90;0.90;;;2.30;99.90;;;;;;5041153;28;20225;-81
2022/12/03 03:10:46;;;;;;;4.22;1.80;;;2.30;99.90;;;;;;5053458;28;20193;-79
2022/12/03 03:13:15;;;;;;;0.75;0.75;;;2.40;99.90;;;;;;5054252;28;20661;-80
2022/12/03 03:15:42;;;;;;;0.70;0.70;;;2.40;99.90;;;;;;5051657;28;20191;-81
2022/12/03 03:18:12;;;;;;;5.63;5.30;;;2.30;99.90;;;;;;5051792;28;20210;-80
2022/12/03 03:20:40;;;;;;;0.60;0.60;;;2.30;99.90;;;;;;5053036;28;20203;-80
2022/12/03 03:23:14;;;;;;;0.50;0.50;;;2.30;99.90;;;;;;5054159;28;20201;-79
2022/12/03 03:25:44;;;;;;;4.15;3.80;;;2.30;99.90;;;;;;5052896;28;20650;-81
2022/12/03 03:28:13;;;;;;;0.50;0.40;;;2.30;99.90;;;;;;5053705;28;20228;-79
2022/12/03 03:30:42;;;;;;;0.50;0.40;;;2.20;99.90;;;;;;5044832;28;20193;-78
2022/12/03 03:33:09;;;;;;;2.97;0.98;;;2.20;99.90;;;;;;5053406;28;20625;-79
2022/12/03 03:35:38;;;;;;;5.20;4.82;;;2.30;99.90;;;;;;5052072;28;20201;-80
2022/12/03 03:38:05;;;;;;;1.77;1.67;;;2.30;99.90;;;;;;5053034;28;20206;-79
2022/12/03 03:40:32;;;;;;;0.50;0.40;;;2.20;99.90;;;;;;5053722;28;20202;-80
2022/12/03 03:43:00;;;;;;;0.75;0.75;;;2.20;99.90;;;;;;5053324;28;20658;-80
2022/12/03 03:45:26;;;;;;;0.82;0.75;;;2.20;99.90;;;;;;5068187;28;20222;-80
2022/12/03 03:47:54;;;;;;;0.80;0.80;;;2.20;99.90;;;;;;5052068;28;20193;-80
2022/12/03 03:50:21;;;;;;;7.25;3.42;;;2.20;99.90;;;;;;5052779;28;20290;-82
2022/12/03 03:52:49;;;;;;;0.50;0.40;;;2.20;99.90;;;;;;5053025;28;20307;-80
2022/12/03 03:55:17;;;;;;;4.80;0.85;;;2.20;99.90;;;;;;5039699;28;20289;-80
2022/12/03 03:57:45;;;;;;;0.50;0.40;;;2.20;99.90;;;;;;5050111;28;20198;-78
2022/12/03 04:00:12;;;;;;;1.50;1.40;;;2.20;99.90;;;;;;5045154;28;20595;-79
2022/12/03 04:02:41;;;;;;;2.67;2.10;;;2.20;99.90;;;;;;5051429;28;20199;-78
2022/12/03 04:05:11;;;;;;;0.50;0.50;;;2.20;99.90;;;;;;5049919;28;20248;-79
2022/12/03 04:07:37;;;;;;;2.45;1.45;;;2.20;99.90;;;;;;5050655;28;20198;-78
2022/12/03 04:12:54;;;;;;;5.45;4.35;;;2.10;99.90;;;;;;5045256;28;20236;-80
2022/12/03 04:13:03;;;;;;;2.75;2.65;;;2.20;99.90;;;;;;5051571;28;20647;-80
2022/12/03 04:15:30;;;;;;;7.18;6.47;;;2.10;99.90;;;;;;5051017;28;20191;-81
2022/12/03 04:20:41;;;;;;;0.50;0.50;;;2.00;99.90;;;;;;5051960;28;20187;-80
2022/12/03 04:23:08;;;;;;;2.80;2.60;;;2.10;99.90;;;;;;5052038;28;20197;-78
2022/12/03 04:36:48;;;;;;;3.25;2.00;;;2.00;99.90;;;;;;4983641;28;20284;-79
2022/12/03 04:39:15;;;;;;;3.38;3.17;;;2.10;99.90;;;;;;4981366;28;20232;-79
2022/12/03 04:41:43;;;;;;;0.63;0.63;;;2.10;99.90;;;;;;4980379;28;20280;-79
2022/12/03 04:46:54;;;;;;;1.30;1.20;;;2.10;99.90;;;;;;4988263;28;20195;-78
2022/12/03 04:49:21;;;;;;;0.50;0.50;;;2.10;99.90;;;;;;4988577;28;20216;-80
2022/12/03 04:51:48;;;;;;;2.58;2.47;;;2.10;99.90;;;;;;4988708;28;20299;-79
2022/12/03 04:54:15;;;;;;;2.58;2.47;;;2.10;99.90;;;;;;4980990;28;20206;-81
2022/12/03 04:56:44;;;;;;;0.50;0.40;;;2.10;99.90;;;;;;4977796;28;20196;-81
2022/12/03 04:59:11;;;;;;;1.83;1.83;;;2.10;99.90;;;;;;4984765;28;20221;-79
2022/12/03 05:01:37;;;;;;;6.70;0.70;;;2.10;99.90;;;;;;5002893;28;20244;-80
2022/12/03 05:04:04;;;;;;;3.55;2.97;;;2.10;99.90;;;;;;5050386;28;20222;-79
2022/12/03 05:06:31;;;;;;;0.50;0.40;;;2.10;99.90;;;;;;5050534;28;20199;-79
2022/12/03 05:08:58;;;;;;;3.20;3.00;;;2.10;99.90;;;;;;5048612;28;20220;-80
2022/12/03 05:11:25;;;;;;;0.88;0.85;;;2.10;99.90;;;;;;5050163;28;20201;-80
2022/12/03 05:13:53;;;;;;;1.05;1.05;;;2.10;99.90;;;;;;5050996;28;20632;-80
2022/12/03 05:16:20;;;;;;;8.85;4.03;;;2.10;99.90;;;;;;5046845;28;20246;-78
2022/12/03 05:18:47;;;;;;;2.15;2.03;;;2.00;99.90;;;;;;5048831;28;20214;-80
2022/12/03 05:21:13;;;;;;;7.07;4.22;;;2.10;99.90;;;;;;5051860;28;20277;-78
2022/12/03 05:23:40;;;;;;;0.60;0.60;;;2.10;99.90;;;;;;5048847;28;20326;-81
2022/12/03 05:26:07;;;;;;;0.50;0.50;;;1.90;99.90;;;;;;5049940;28;20219;-79
2022/12/03 05:28:34;;;;;;;0.50;0.45;;;2.00;99.90;;;;;;5043229;28;20219;-80
2022/12/03 05:31:03;;;;;;;0.50;0.45;;;2.00;99.90;;;;;;5053640;28;20201;-80
2022/12/03 05:33:30;;;;;;;0.50;0.40;;;2.00;99.90;;;;;;5054421;28;20195;-81
2022/12/03 05:35:57;;;;;;;2.97;1.80;;;2.00;99.90;;;;;;5048298;28;20191;-79
2022/12/03 05:38:24;;;;;;;0.63;0.63;;;2.10;99.90;;;;;;5053666;28;20233;-80
2022/12/03 05:40:50;;;;;;;0.50;0.40;;;2.10;99.90;;;;;;5044527;28;20205;-80
2022/12/03 05:43:16;;;;;;;3.20;2.92;;;2.10;99.90;;;;;;5035934;28;20198;-79
2022/12/03 05:45:44;;;;;;;3.17;2.97;;;2.00;99.90;;;;;;5039223;28;20218;-78
2022/12/03 05:48:14;;;;;;;0.50;0.50;;;1.90;99.90;;;;;;5049376;28;20543;-80
2022/12/03 05:50:43;;;;;;;0.50;0.40;;;2.00;99.90;;;;;;5053256;28;20758;-82
2022/12/03 05:53:10;;;;;;;2.05;1.70;;;2.00;99.90;;;;;;5041320;28;20282;-79
2022/12/03 05:55:37;;;;;;;3.53;1.40;;;2.00;99.90;;;;;;5034108;28;20731;-79
2022/12/03 05:58:04;;;;;;;0.70;0.70;;;2.00;99.90;;;;;;5055207;28;20743;-79
2022/12/03 06:00:33;;;;;;;3.08;2.55;;;2.00;99.90;;;;;;5038418;28;20195;-80
2022/12/03 06:03:00;;;;;;;3.53;1.17;;;2.00;99.90;;;;;;5034809;28;20199;-78
2022/12/03 06:05:28;;;;;;;0.50;0.47;;;2.00;99.90;;;;;;5044642;28;20313;-79
2022/12/03 06:07:54;;;;;;;0.50;0.40;;;2.00;99.90;;;;;;5052521;28;20198;-80
2022/12/03 06:10:23;;;;;;;4.43;3.95;;;2.00;99.90;;;;;;5040892;28;20191;-79
2022/12/03 06:12:51;;;;;;;2.45;0.95;;;1.90;99.90;;;;;;5047564;28;20529;-81
2022/12/03 06:15:18;;;;;;;5.57;2.35;;;1.90;99.90;;;;;;5050716;28;20192;-79
2022/12/03 06:17:45;;;;;;;2.45;1.08;;;1.90;99.90;;;;;;5039600;28;20197;-79
2022/12/03 06:20:15;;;;;;;1.48;1.00;;;1.90;99.90;;;;;;5049017;28;20293;-80
2022/12/03 06:22:43;;;;;;;9.07;2.55;;;1.90;99.90;;;;;;5054213;28;20245;-79
2022/12/03 06:25:11;;;;;;;0.63;0.60;;;1.90;99.90;;;;;;5053862;28;20218;-78
2022/12/03 06:27:37;;;;;;;0.88;0.88;;;1.90;99.90;;;;;;5049583;28;20188;-82
2022/12/03 06:30:06;;;;;;;0.50;0.40;;;1.90;99.90;;;;;;5039691;28;20309;-79
2022/12/03 06:32:34;;;;;;;5.07;1.48;;;1.90;99.90;;;;;;5044115;28;20656;-79
2022/12/03 06:35:00;;;;;;;1.38;1.30;;;1.90;99.90;;;;;;5034343;28;20285;-79
2022/12/03 06:37:27;;;;;;;2.10;0.98;;;1.90;99.90;;;;;;5041468;28;20186;-80
2022/12/03 06:39:56;;;;;;;5.80;3.78;;;1.80;99.90;;;;;;5052010;28;20220;-79
2022/12/03 06:42:22;;;;;;;0.98;0.98;;;1.80;99.90;;;;;;5047323;28;20201;-80
2022/12/03 06:44:49;;;;;;;1.77;1.67;;;1.80;99.90;;;;;;5047107;28;20226;-80
2022/12/03 06:47:16;;;;;;;0.80;0.70;;;1.80;99.90;;;;;;5038626;28;20198;-79
2022/12/03 06:49:43;;;;;;;1.02;1.02;;;1.80;99.90;;;;;;5039656;28;20211;-81
2022/12/03 06:52:09;;;;;;;3.35;2.90;;;1.80;99.90;;;;;;5042171;28;20195;-77
2022/12/03 06:54:36;;;;;;;5.65;4.72;;;1.80;99.90;;;;;;5053578;28;20281;-79
2022/12/03 06:57:04;;;;;;;2.00;1.90;;;1.90;99.90;;;;;;5042123;28;20681;-78
2022/12/03 06:59:32;;;;;;;1.58;1.58;;;1.90;99.90;;;;;;5045054;28;20216;-80
2022/12/03 07:02:00;;;;;;;0.73;0.73;;;1.90;99.90;;;;;;5046446;28;20203;-80
2022/12/03 07:04:27;;;;;;;9.63;3.05;;;1.90;99.90;;;;;;5045474;28;20689;-79
2022/12/03 07:06:54;;;;;;;2.35;1.77;;;1.80;99.90;;;;;;5043137;28;20201;-81
2022/12/03 07:09:20;;;;;;;1.55;1.48;;;1.70;99.90;;;;;;5037765;28;20215;-78
2022/12/03 07:11:47;;;;;;;2.47;0.80;;;1.80;99.90;;;;;;5042907;28;20555;-77
2022/12/03 07:14:15;;;;;;;0.50;0.40;;;1.80;99.90;;;;;;5046700;28;20191;-79
2022/12/03 07:16:42;;;;;;;2.40;1.13;;;1.70;99.90;;;;;;5046105;28;20192;-79
2022/12/03 07:19:10;;;;;;;1.85;1.75;;;1.70;99.90;;;;;;5041896;28;20574;-77
2022/12/03 07:21:37;;;;;;;0.50;0.40;;;1.70;99.90;;;;;;5050403;28;20193;-78
2022/12/03 07:24:04;;;;;;;7.80;2.65;;;1.70;99.90;;;;;;5046154;28;20302;-78
2022/12/03 07:26:31;;;;;;;0.70;0.70;;;1.70;99.90;;;;;;5034381;28;20273;-77
2022/12/03 07:28:58;;;;;;;0.50;0.40;;;1.80;99.90;;;;;;5047336;28;20585;-78
2022/12/03 07:31:27;;;;;;;5.90;3.55;;;1.80;99.90;;;;;;5045647;28;20676;-78
2022/12/03 07:33:54;;;;;;;4.63;3.53;;;1.80;99.90;;;;;;5043136;28;20197;-76
2022/12/03 07:36:20;;;;;;;2.13;1.92;;;1.80;99.90;;;;;;5045250;28;20191;-79
2022/12/03 07:38:47;;;;;;;0.98;0.98;;;1.80;99.90;;;;;;5049274;28;20223;-77
2022/12/03 07:41:14;;;;;;;1.25;1.13;;;1.80;99.90;;;;;;5051358;28;20293;-77
2022/12/03 07:43:41;;;;;;;1.88;1.70;;;1.80;99.90;;;;;;5038678;28;20209;-77
2022/12/03 07:46:08;;;;;;;1.45;1.35;;;1.80;99.90;;;;;;5041734;28;20253;-76
2022/12/03 07:48:36;;;;;;;2.72;2.53;;;1.70;99.90;;;;;;5042409;28;20225;-76
2022/12/03 07:51:03;;;;;;;2.40;2.17;;;1.80;99.90;;;;;;5037034;28;20760;-77
2022/12/03 07:53:30;;;;;;;14.52;1.42;;;1.70;99.90;;;;;;5029633;28;20293;-79
2022/12/03 07:55:57;;;;;;;12.10;3.90;;;1.70;99.90;;;;;;5034493;28;20235;-78
2022/12/03 07:58:24;;;;;;;1.45;1.33;;;1.80;99.90;;;;;;5049826;28;20309;-78
2022/12/03 08:00:50;;;;;;;6.80;1.52;;;1.80;99.90;;;;;;5045464;28;20191;-77
2022/12/03 08:03:17;;;;;;;2.35;1.13;;;1.80;99.90;;;;;;5031650;28;20195;-78
2022/12/03 08:05:45;;;;;;;1.60;1.50;;;1.90;99.90;;;;;;5036748;28;20237;-78
2022/12/03 08:08:12;;;;;;;2.28;2.08;;;1.90;99.90;;;;;;5045196;28;20223;-77
2022/12/03 08:10:39;;;;;;;3.83;2.05;;;1.90;99.90;;;;;;5032051;28;20197;-78
2022/12/03 08:13:11;;;;;;;1.27;1.27;;;1.90;99.90;;;;;;5037877;28;20290;-78
2022/12/03 08:15:38;;;;;;;0.70;0.70;;;1.90;99.90;;;;;;5047986;28;20301;-78
2022/12/03 08:18:13;;;;;;;5.43;3.90;;;1.80;99.90;;;;;;5050974;28;20277;-78
2022/12/03 08:20:41;;;;;;;2.67;2.47;;;1.80;99.90;;;;;;5044052;28;20213;-77
2022/12/03 08:23:14;;;;;;;0.50;0.40;;;1.90;99.90;;;;;;5044539;28;20229;-77
2022/12/03 08:25:42;;;;;;;0.60;0.60;;;2.00;99.90;;;;;;5031034;28;20222;-78
2022/12/03 08:28:13;;;;;;;0.52;0.50;;;2.00;99.90;;;;;;5031108;28;20588;-77
2022/12/03 08:30:40;;;;;;;0.88;0.65;;;2.10;99.90;;;;;;5047044;28;20293;-79
2022/12/03 08:33:17;;;;;;;1.23;1.15;;;2.10;99.90;;;;;;5037210;28;20188;-78
2022/12/03 08:35:48;;;;;;;0.50;0.45;;;2.10;99.90;;;;;;5035953;28;20191;-78
2022/12/03 08:38:17;;;;;;;3.65;3.08;;;2.20;99.90;;;;;;5050636;28;20226;-78
2022/12/03 08:40:47;;;;;;;0.50;0.50;;;2.10;99.90;;;;;;5031776;28;20290;-77
2022/12/03 08:43:20;;;;;;;0.95;0.95;;;2.10;99.90;;;;;;5035600;28;20288;-78
2022/12/03 08:45:48;;;;;;;7.50;2.90;;;2.10;99.90;;;;;;5049234;28;20303;-78
2022/12/03 08:48:35;;;;;;;3.00;2.90;;;2.10;99.90;;;;;;5050484;28;20268;-77
2022/12/03 08:51:09;;;;;;;2.33;2.13;;;2.10;99.90;;;;;;5032945;28;20226;-78
2022/12/03 08:53:41;;;;;;;2.33;2.15;;;2.10;99.90;;;;;;5041906;28;20202;-78
2022/12/03 08:56:20;;;;;;;1.73;1.65;;;2.10;99.90;;;;;;5029994;28;20176;-77
2022/12/03 08:58:49;;;;;;;3.42;3.13;;;2.10;99.90;;;;;;5030636;28;20226;-79
2022/12/03 09:01:31;;;;;;;1.83;1.75;;;2.10;99.90;;;;;;5030340;28;20207;-79
2022/12/03 09:04:14;;;;;;;1.80;1.70;;;2.10;99.90;;;;;;5044701;28;20198;-78
2022/12/03 09:06:40;;;;;;;4.70;4.25;;;2.10;99.90;;;;;;5043153;28;20305;-78
2022/12/03 09:09:09;;;;;;;2.55;1.95;;;2.00;99.90;;;;;;5034555;28;20303;-78
2022/12/03 09:11:36;;;;;;;1.17;1.17;;;2.00;99.90;;;;;;5045420;28;20770;-78
2022/12/03 09:14:03;;;;;;;0.50;0.40;;;2.10;99.90;;;;;;5046821;28;20195;-77
2022/12/03 09:16:30;;;;;;;1.85;1.75;;;2.10;99.90;;;;;;5033437;28;20229;-77
2022/12/03 09:18:57;;;;;;;5.05;3.17;;;2.10;99.90;;;;;;5048396;28;20254;-77
2022/12/03 09:21:23;;;;;;;3.72;3.20;;;2.10;99.90;;;;;;5050613;28;20253;-78
2022/12/03 09:23:50;;;;;;;2.97;1.67;;;2.10;99.90;;;;;;5046984;28;20222;-76
2022/12/03 09:26:18;;;;;;;2.65;2.25;;;2.10;99.90;;;;;;5038767;28;20257;-78
2022/12/03 09:28:47;;;;;;;0.95;0.95;;;2.10;99.90;;;;;;5046070;28;20223;-78
2022/12/03 09:31:13;;;;;;;1.65;1.55;;;2.10;99.90;;;;;;5046848;28;20196;-76
2022/12/03 09:33:41;;;;;;;1.55;0.90;;;2.10;99.90;;;;;;5045338;28;20281;-78
2022/12/03 09:36:09;;;;;;;3.45;2.63;;;2.10;99.90;;;;;;5057103;28;20210;-79
2022/12/03 09:38:35;;;;;;;1.00;1.00;;;2.10;99.90;;;;;;5067822;28;20682;-80
2022/12/03 09:41:02;;;;;;;5.93;3.95;;;2.20;99.90;;;;;;5064342;28;20195;-81
2022/12/03 09:43:32;;;;;;;4.10;3.90;;;2.30;99.90;;;;;;5058555;28;20186;-79
2022/12/03 09:46:00;;;;;;;3.53;3.05;;;2.30;99.90;;;;;;5065134;28;20246;-80
2022/12/03 09:48:27;;;;;;;2.70;2.35;;;2.30;99.90;;;;;;5064587;28;20240;-80
2022/12/03 09:50:54;;;;;;;2.25;1.73;;;2.20;99.90;;;;;;5042893;28;20202;-79
2022/12/03 09:53:25;;;;;;;5.18;4.45;;;2.30;99.90;;;;;;5053327;28;20198;-80
2022/12/03 09:55:52;;;;;;;4.95;3.22;;;2.30;99.90;;;;;;5043714;28;20546;-79
2022/12/03 09:58:19;;;;;;;0.90;0.90;;;2.30;99.90;;;;;;5036336;28;20226;-81
2022/12/03 10:00:51;;;;;;;3.05;2.47;;;2.30;99.90;;;;;;5036562;28;20203;-79
2022/12/03 10:03:20;;;;;;;0.50;0.45;;;2.30;99.90;;;;;;5052938;28;20190;-79
2022/12/03 10:05:48;;;;;;;0.70;0.70;;;2.40;99.90;;;;;;5055574;28;20313;-82
2022/12/03 10:08:19;;;;;;;2.25;2.10;;;2.40;99.90;;;;;;5057086;28;20210;-81
2022/12/03 10:10:48;;;;;;;1.13;1.13;;;2.40;99.90;;;;;;5045314;28;20201;-80
2022/12/03 10:13:23;;;;;;;1.65;1.55;;;2.40;99.90;;;;;;5036976;28;20219;-80
2022/12/03 10:15:52;;;;;;;2.35;1.23;;;2.50;99.90;;;;;;5035616;28;20195;-80
2022/12/03 10:18:22;;;;;;;0.70;0.70;;;2.50;99.90;;;;;;5053722;28;20231;-81
2022/12/03 10:20:49;;;;;;;3.08;2.13;;;2.50;99.90;;;;;;5049375;28;20289;-81
2022/12/03 10:23:21;;;;;;;1.23;0.85;;;2.60;99.90;;;;;;5037878;28;20726;-81
2022/12/03 10:25:53;;;;;;;1.67;1.58;;;2.60;99.90;;;;;;5036283;28;20857;-79
2022/12/03 10:28:32;;;;;;;0.50;0.43;;;2.60;99.90;;;;;;5053532;28;20222;-80
2022/12/03 10:31:01;;;;;;;2.60;2.42;;;2.60;99.90;;;;;;5055565;28;20644;-78
2022/12/03 10:33:31;;;;;;;11.35;4.22;;;2.50;99.90;;;;;;5063220;22;20257;-75
2022/12/03 10:36:24;;;;;;;2.15;1.20;;;2.70;99.90;;;;;;5064442;28;20626;-76
2022/12/03 10:39:15;;;;;;;0.50;0.45;;;2.70;99.90;;;;;;5071705;28;20200;-75
2022/12/03 10:41:44;;;;;;;4.93;2.80;;;2.80;99.90;;;;;;5058283;28;20210;-75
2022/12/03 10:44:20;;;;;;;5.47;1.45;;;2.70;99.90;;;;;;5069741;28;20647;-74
2022/12/03 10:47:06;;;;;;;2.17;1.92;;;2.80;99.90;;;;;;5069816;28;20217;-75
2022/12/03 10:49:33;;;;;;;2.17;2.08;;;2.80;99.90;;;;;;5052540;28;20559;-75
2022/12/03 10:52:01;;;;;;;1.00;1.00;;;2.90;99.90;;;;;;5051898;28;20280;-75
2022/12/03 10:54:30;;;;;;;4.50;2.03;;;3.00;99.90;;;;;;5068242;28;20732;-75
2022/12/03 10:56:58;;;;;;;0.50;0.50;;;3.10;99.90;;;;;;5071467;28;20190;-75
2022/12/03 10:59:28;;;;;;;1.98;1.88;;;3.20;99.90;;;;;;5056316;28;20208;-74
2022/12/03 11:01:54;;;;;;;1.17;1.08;;;3.20;99.90;;;;;;5061500;28;20182;-74
2022/12/03 11:04:27;;;;;;;5.32;2.72;;;3.20;99.90;;;;;;5071184;28;20576;-74
2022/12/03 11:06:55;;;;;;;1.90;1.80;;;3.30;99.90;;;;;;5055067;28;20203;-74
2022/12/03 11:09:33;;;;;;;1.13;1.13;;;3.10;99.90;;;;;;5068129;28;20194;-75
2022/12/03 11:12:04;;;;;;;19.00;9.57;;;3.00;99.90;;;;;;5052165;28;20198;-75
2022/12/03 11:15:05;;;;;;;1.42;1.23;;;2.90;99.90;;;;;;5063795;28;20296;-74
2022/12/03 11:17:44;;;;;;;1.05;0.98;;;3.00;99.90;;;;;;5062393;28;20191;-74
2022/12/03 11:20:51;;;;;;;0.50;0.40;;;3.00;99.90;;;;;;5065605;28;20591;-75
2022/12/03 11:23:58;;;;;;;2.92;2.72;;;3.00;99.90;;;;;;5051695;28;20209;-76
2022/12/03 11:26:59;;;;;;;3.42;3.13;;;2.90;99.90;;;;;;5053115;28;20212;-76
2022/12/03 11:29:49;;;;;;;0.65;0.50;;;3.00;99.90;;;;;;5052255;28;20224;-75
2022/12/03 11:33:03;;;;;;;3.03;2.88;;;2.90;99.90;;;;;;5059937;28;20191;-73
2022/12/03 11:35:50;;;;;;;0.50;0.40;;;2.90;99.90;;;;;;5058764;28;20582;-75
2022/12/03 11:38:44;;;;;;;3.65;1.52;;;2.90;99.90;;;;;;5061143;28;20198;-74
2022/12/03 11:41:14;;;;;;;0.50;0.40;;;2.90;99.90;;;;;;5059482;28;20192;-75
2022/12/03 11:44:29;;;;;;;2.88;1.98;;;2.80;99.90;;;;;;5057254;28;20244;-75
2022/12/03 11:46:59;;;;;;;2.45;1.73;;;2.70;99.90;;;;;;5051061;28;20202;-74
2022/12/03 11:49:38;;;;;;;0.50;0.40;;;2.70;99.90;;;;;;5054493;28;20186;-74
2022/12/03 11:52:19;;;;;;;1.33;1.23;;;2.80;99.90;;;;;;5069886;28;20708;-75
2022/12/03 11:54:50;;;;;;;0.80;0.75;;;2.80;99.90;;;;;;5069428;28;20214;-74
2022/12/03 11:57:32;;;;;;;0.90;0.90;;;2.80;99.90;;;;;;5068989;28;20224;-75
2022/12/03 12:00:03;;;;;;;3.95;1.27;;;2.80;99.90;;;;;;5051638;28;20553;-75
2022/12/03 12:02:31;;;;;;;4.18;3.80;;;2.90;99.90;;;;;;5064885;28;20529;-75
2022/12/03 12:05:15;;;;;;;8.98;1.88;;;2.80;99.90;;;;;;5055486;28;20614;-75
2022/12/03 12:07:44;;;;;;;1.77;1.52;;;2.80;99.90;;;;;;5063065;28;20194;-75
2022/12/03 12:10:11;;;;;;;0.50;0.40;;;2.70;99.90;;;;;;5069724;28;20194;-76
2022/12/03 12:12:41;;;;;;;1.45;1.35;;;2.70;99.90;;;;;;5062744;28;20205;-74
2022/12/03 12:15:34;;;;;;;1.17;1.08;;;2.70;99.90;;;;;;5056795;28;20242;-73
2022/12/03 12:18:34;;;;;;;4.15;3.05;;;2.70;99.90;;;;;;5068936;28;20195;-75
2022/12/03 12:21:34;;;;;;;1.35;1.35;;;2.60;99.90;;;;;;5067466;28;20214;-75
2022/12/03 12:24:34;;;;;;;1.58;1.48;;;2.70;99.90;;;;;;5063352;28;20300;-75
2022/12/03 12:27:04;;;;;;;1.90;1.83;;;2.70;99.90;;;;;;5059791;28;20623;-74
2022/12/03 12:29:31;;;;;;;1.88;1.77;;;2.70;99.90;;;;;;5065932;28;20654;-74
2022/12/03 12:32:01;;;;;;;3.85;2.25;;;2.70;99.90;;;;;;5061625;28;20273;-75
2022/12/03 12:34:27;;;;;;;3.20;2.38;;;2.70;99.90;;;;;;5062109;28;20221;-74
2022/12/03 12:36:56;;;;;;;1.23;1.13;;;2.70;99.90;;;;;;5063292;28;20213;-75
2022/12/03 12:39:25;;;;;;;3.22;2.05;;;2.70;99.90;;;;;;5063301;28;20200;-74
2022/12/03 12:41:54;;;;;;;0.60;0.40;;;2.80;99.90;;;;;;5058156;28;20193;-75
2022/12/03 12:44:22;;;;;;;2.05;1.75;;;2.80;99.90;;;;;;5066242;28;20218;-74
2022/12/03 12:46:53;;;;;;;4.63;1.92;;;2.80;99.90;;;;;;5060431;28;20202;-75
2022/12/03 12:49:25;;;;;;;2.78;0.93;;;2.80;99.90;;;;;;5068628;28;20217;-74
2022/12/03 12:51:52;;;;;;;3.15;1.70;;;2.70;99.90;;;;;;5056581;28;20195;-74
2022/12/03 12:54:19;;;;;;;2.50;2.40;;;2.70;99.90;;;;;;5052938;28;20313;-74
2022/12/03 12:56:48;;;;;;;1.02;1.02;;;2.70;99.90;;;;;;5055545;28;20202;-74
2022/12/03 12:59:19;;;;;;;5.47;1.23;;;2.70;99.90;;;;;;5063534;28;20658;-72
2022/12/03 13:01:48;;;;;;;2.38;1.20;;;2.70;99.90;;;;;;5062554;28;20189;-75
2022/12/03 13:04:17;;;;;;;1.63;1.55;;;2.70;99.90;;;;;;5059823;28;20224;-74
2022/12/03 13:06:44;;;;;;;0.50;0.40;;;2.80;99.90;;;;;;5061917;28;20788;-75
2022/12/03 13:09:16;;;;;;;13.05;3.58;;;2.70;99.90;;;;;;5061073;28;20740;-74
2022/12/03 13:11:45;;;;;;;0.50;0.40;;;2.80;99.90;;;;;;5058833;28;20195;-75
2022/12/03 13:14:19;;;;;;;0.50;0.50;;;2.80;99.90;;;;;;5062337;28;20237;-75
2022/12/03 13:16:47;;;;;;;0.73;0.73;;;2.80;99.90;;;;;;5061153;28;20224;-74
2022/12/03 13:19:22;;;;;;;5.85;1.85;;;2.80;99.90;;;;;;5059115;28;20568;-75
2022/12/03 13:21:50;;;;;;;0.70;0.50;;;2.80;99.90;;;;;;5060110;28;20197;-75
2022/12/03 13:24:31;;;;;;;1.80;0.75;;;2.70;99.90;;;;;;5058549;28;20213;-74
2022/12/03 13:26:59;;;;;;;6.70;4.97;;;2.60;99.90;;;;;;5057044;28;20210;-75
2022/12/03 13:29:27;;;;;;;0.77;0.77;;;2.50;99.90;;;;;;5059908;28;20281;-75
2022/12/03 13:31:56;;;;;;;7.03;5.57;;;2.50;99.90;;;;;;5061597;28;20197;-74